sensor_id;sensor_type;location;lat;lon;timestamp;P1;durP1;ratioP1;P2;durP2;ratioP2
21091;SDS011;10704;42.678;23.288;2022-12-10T00:01:12;28.05;;;11.45;;
21091;SDS011;10704;42.678;23.288;2022-12-10T00:03:39;21.50;;;9.20;;
21091;SDS011;10704;42.678;23.288;2022-12-10T00:06:06;21.85;;;10.32;;
21091;SDS011;10704;42.678;23.288;2022-12-10T00:08:34;27.02;;;10.05;;
21091;SDS011;10704;42.678;23.288;2022-12-10T00:11:04;23.15;;;9.63;;
21091;SDS011;10704;42.678;23.288;2022-12-10T00:13:34;30.88;;;12.60;;
21091;SDS011;10704;42.678;23.288;2022-12-10T00:16:02;24.23;;;10.30;;
21091;SDS011;10704;42.678;23.288;2022-12-10T00:18:30;30.13;;;9.63;;
21091;SDS011;10704;42.678;23.288;2022-12-10T00:20:56;23.40;;;10.93;;
21091;SDS011;10704;42.678;23.288;2022-12-10T00:23:22;24.85;;;10.20;;
21091;SDS011;10704;42.678;23.288;2022-12-10T00:25:48;21.42;;;9.73;;
21091;SDS011;10704;42.678;23.288;2022-12-10T00:28:14;24.10;;;10.75;;
21091;SDS011;10704;42.678;23.288;2022-12-10T00:30:40;21.30;;;9.93;;
21091;SDS011;10704;42.678;23.288;2022-12-10T00:33:06;25.70;;;10.77;;
21091;SDS011;10704;42.678;23.288;2022-12-10T00:35:34;21.00;;;10.25;;
21091;SDS011;10704;42.678;23.288;2022-12-10T00:38:01;26.63;;;11.07;;
21091;SDS011;10704;42.678;23.288;2022-12-10T00:40:27;21.83;;;10.73;;
21091;SDS011;10704;42.678;23.288;2022-12-10T00:42:53;24.20;;;9.68;;
21091;SDS011;10704;42.678;23.288;2022-12-10T00:45:19;22.13;;;9.35;;
21091;SDS011;10704;42.678;23.288;2022-12-10T00:47:45;21.05;;;8.98;;
21091;SDS011;10704;42.678;23.288;2022-12-10T00:50:11;24.02;;;9.57;;
21091;SDS011;10704;42.678;23.288;2022-12-10T00:52:37;20.20;;;9.13;;
21091;SDS011;10704;42.678;23.288;2022-12-10T00:55:03;18.23;;;8.82;;
21091;SDS011;10704;42.678;23.288;2022-12-10T00:57:29;22.25;;;8.68;;
21091;SDS011;10704;42.678;23.288;2022-12-10T00:59:55;18.48;;;8.60;;
21091;SDS011;10704;42.678;23.288;2022-12-10T01:02:21;19.92;;;9.07;;
21091;SDS011;10704;42.678;23.288;2022-12-10T01:04:51;22.80;;;9.48;;
21091;SDS011;10704;42.678;23.288;2022-12-10T01:07:18;17.30;;;8.98;;
21091;SDS011;10704;42.678;23.288;2022-12-10T01:09:43;22.85;;;9.38;;
21091;SDS011;10704;42.678;23.288;2022-12-10T01:12:09;19.35;;;9.50;;
21091;SDS011;10704;42.678;23.288;2022-12-10T01:14:35;19.52;;;9.55;;
21091;SDS011;10704;42.678;23.288;2022-12-10T01:17:02;21.38;;;10.07;;
21091;SDS011;10704;42.678;23.288;2022-12-10T01:19:29;20.02;;;9.57;;
21091;SDS011;10704;42.678;23.288;2022-12-10T01:21:56;19.35;;;10.75;;
21091;SDS011;10704;42.678;23.288;2022-12-10T01:24:23;24.00;;;10.60;;
21091;SDS011;10704;42.678;23.288;2022-12-10T01:26:50;33.45;;;11.57;;
21091;SDS011;10704;42.678;23.288;2022-12-10T01:56:25;25.13;;;10.18;;
21091;SDS011;10704;42.678;23.288;2022-12-10T01:58:53;18.83;;;9.10;;
21091;SDS011;10704;42.678;23.288;2022-12-10T02:03:56;14.23;;;7.72;;
21091;SDS011;10704;42.678;23.288;2022-12-10T02:17:19;17.02;;;9.52;;
21091;SDS011;10704;42.678;23.288;2022-12-10T02:20:00;17.33;;;7.60;;
21091;SDS011;10704;42.678;23.288;2022-12-10T02:22:42;19.13;;;8.13;;
21091;SDS011;10704;42.678;23.288;2022-12-10T02:25:14;16.27;;;7.97;;
21091;SDS011;10704;42.678;23.288;2022-12-10T02:27:44;20.23;;;8.77;;
21091;SDS011;10704;42.678;23.288;2022-12-10T02:30:12;18.05;;;7.40;;
21091;SDS011;10704;42.678;23.288;2022-12-10T02:32:38;17.20;;;7.88;;
21091;SDS011;10704;42.678;23.288;2022-12-10T02:35:09;19.15;;;7.72;;
21091;SDS011;10704;42.678;23.288;2022-12-10T02:37:48;14.52;;;7.93;;
21091;SDS011;10704;42.678;23.288;2022-12-10T02:40:30;16.50;;;7.50;;
21091;SDS011;10704;42.678;23.288;2022-12-10T02:42:58;21.33;;;8.07;;
21091;SDS011;10704;42.678;23.288;2022-12-10T02:45:25;16.10;;;8.18;;
21091;SDS011;10704;42.678;23.288;2022-12-10T02:47:54;17.83;;;8.38;;
21091;SDS011;10704;42.678;23.288;2022-12-10T02:50:25;16.70;;;8.48;;
21091;SDS011;10704;42.678;23.288;2022-12-10T02:52:52;16.25;;;8.23;;
21091;SDS011;10704;42.678;23.288;2022-12-10T02:55:19;18.48;;;8.52;;
21091;SDS011;10704;42.678;23.288;2022-12-10T03:00:26;19.15;;;8.90;;
21091;SDS011;10704;42.678;23.288;2022-12-10T03:08:50;16.25;;;8.25;;
21091;SDS011;10704;42.678;23.288;2022-12-10T03:11:21;14.32;;;8.60;;
21091;SDS011;10704;42.678;23.288;2022-12-10T03:13:55;17.70;;;9.07;;
21091;SDS011;10704;42.678;23.288;2022-12-10T03:16:23;20.77;;;9.27;;
21091;SDS011;10704;42.678;23.288;2022-12-10T03:18:52;20.83;;;9.75;;
21091;SDS011;10704;42.678;23.288;2022-12-10T03:21:22;22.05;;;9.43;;
21091;SDS011;10704;42.678;23.288;2022-12-10T03:23:50;18.65;;;9.02;;
21091;SDS011;10704;42.678;23.288;2022-12-10T03:26:16;14.43;;;7.47;;
21091;SDS011;10704;42.678;23.288;2022-12-10T03:28:51;23.17;;;9.07;;
21091;SDS011;10704;42.678;23.288;2022-12-10T03:31:21;19.45;;;7.85;;
21091;SDS011;10704;42.678;23.288;2022-12-10T03:33:48;21.13;;;7.72;;
21091;SDS011;10704;42.678;23.288;2022-12-10T03:36:15;22.63;;;8.25;;
21091;SDS011;10704;42.678;23.288;2022-12-10T03:38:43;19.88;;;8.30;;
21091;SDS011;10704;42.678;23.288;2022-12-10T03:41:09;18.55;;;8.65;;
21091;SDS011;10704;42.678;23.288;2022-12-10T03:43:35;17.23;;;7.38;;
21091;SDS011;10704;42.678;23.288;2022-12-10T03:46:01;14.95;;;7.35;;
21091;SDS011;10704;42.678;23.288;2022-12-10T03:48:27;14.93;;;8.48;;
21091;SDS011;10704;42.678;23.288;2022-12-10T03:50:52;18.58;;;7.57;;
21091;SDS011;10704;42.678;23.288;2022-12-10T03:53:18;18.92;;;8.50;;
21091;SDS011;10704;42.678;23.288;2022-12-10T03:55:45;19.67;;;7.50;;
21091;SDS011;10704;42.678;23.288;2022-12-10T03:58:10;18.02;;;7.68;;
21091;SDS011;10704;42.678;23.288;2022-12-10T04:00:36;17.10;;;7.95;;
21091;SDS011;10704;42.678;23.288;2022-12-10T04:03:02;12.63;;;6.97;;
21091;SDS011;10704;42.678;23.288;2022-12-10T04:05:28;14.82;;;7.97;;
21091;SDS011;10704;42.678;23.288;2022-12-10T04:07:54;15.43;;;8.15;;
21091;SDS011;10704;42.678;23.288;2022-12-10T04:10:20;16.10;;;7.07;;
21091;SDS011;10704;42.678;23.288;2022-12-10T04:12:46;21.50;;;7.32;;
21091;SDS011;10704;42.678;23.288;2022-12-10T04:15:32;17.33;;;7.93;;
21091;SDS011;10704;42.678;23.288;2022-12-10T04:18:16;18.77;;;7.80;;
21091;SDS011;10704;42.678;23.288;2022-12-10T04:20:42;16.50;;;7.13;;
21091;SDS011;10704;42.678;23.288;2022-12-10T04:23:27;19.52;;;6.65;;
21091;SDS011;10704;42.678;23.288;2022-12-10T04:26:11;15.63;;;6.82;;
21091;SDS011;10704;42.678;23.288;2022-12-10T04:28:56;18.13;;;7.32;;
21091;SDS011;10704;42.678;23.288;2022-12-10T04:31:22;16.08;;;7.30;;
21091;SDS011;10704;42.678;23.288;2022-12-10T04:33:48;15.65;;;7.35;;
21091;SDS011;10704;42.678;23.288;2022-12-10T04:36:14;18.85;;;7.22;;
21091;SDS011;10704;42.678;23.288;2022-12-10T04:38:40;14.38;;;6.75;;
21091;SDS011;10704;42.678;23.288;2022-12-10T04:41:06;18.92;;;7.55;;
21091;SDS011;10704;42.678;23.288;2022-12-10T04:43:41;18.30;;;6.95;;
21091;SDS011;10704;42.678;23.288;2022-12-10T04:46:08;19.58;;;8.38;;
21091;SDS011;10704;42.678;23.288;2022-12-10T04:48:35;14.88;;;7.03;;
21091;SDS011;10704;42.678;23.288;2022-12-10T04:51:01;15.85;;;7.07;;
21091;SDS011;10704;42.678;23.288;2022-12-10T04:53:27;18.17;;;7.13;;
21091;SDS011;10704;42.678;23.288;2022-12-10T04:55:53;13.27;;;7.13;;
21091;SDS011;10704;42.678;23.288;2022-12-10T04:58:19;21.20;;;7.43;;
21091;SDS011;10704;42.678;23.288;2022-12-10T05:00:45;15.25;;;7.78;;
21091;SDS011;10704;42.678;23.288;2022-12-10T05:03:11;17.00;;;8.00;;
21091;SDS011;10704;42.678;23.288;2022-12-10T05:05:37;17.15;;;7.55;;
21091;SDS011;10704;42.678;23.288;2022-12-10T05:08:03;14.65;;;7.97;;
21091;SDS011;10704;42.678;23.288;2022-12-10T05:10:29;16.33;;;8.00;;
21091;SDS011;10704;42.678;23.288;2022-12-10T05:12:55;15.45;;;6.78;;
21091;SDS011;10704;42.678;23.288;2022-12-10T05:15:21;16.02;;;7.28;;
21091;SDS011;10704;42.678;23.288;2022-12-10T05:17:48;19.00;;;7.82;;
21091;SDS011;10704;42.678;23.288;2022-12-10T05:20:13;20.27;;;8.70;;
21091;SDS011;10704;42.678;23.288;2022-12-10T05:22:39;17.98;;;8.32;;
21091;SDS011;10704;42.678;23.288;2022-12-10T05:25:24;16.30;;;6.95;;
21091;SDS011;10704;42.678;23.288;2022-12-10T05:27:50;15.70;;;7.65;;
21091;SDS011;10704;42.678;23.288;2022-12-10T05:30:15;17.95;;;7.97;;
21091;SDS011;10704;42.678;23.288;2022-12-10T05:32:41;16.17;;;8.95;;
21091;SDS011;10704;42.678;23.288;2022-12-10T05:35:07;19.48;;;7.55;;
21091;SDS011;10704;42.678;23.288;2022-12-10T05:37:33;15.68;;;7.70;;
21091;SDS011;10704;42.678;23.288;2022-12-10T05:39:59;16.67;;;7.55;;
21091;SDS011;10704;42.678;23.288;2022-12-10T05:42:25;19.17;;;8.43;;
21091;SDS011;10704;42.678;23.288;2022-12-10T05:44:51;16.52;;;8.00;;
21091;SDS011;10704;42.678;23.288;2022-12-10T05:47:17;18.15;;;8.75;;
21091;SDS011;10704;42.678;23.288;2022-12-10T05:49:42;22.50;;;8.75;;
21091;SDS011;10704;42.678;23.288;2022-12-10T05:52:08;21.70;;;8.63;;
21091;SDS011;10704;42.678;23.288;2022-12-10T05:54:35;20.58;;;8.85;;
21091;SDS011;10704;42.678;23.288;2022-12-10T05:57:01;21.00;;;9.05;;
21091;SDS011;10704;42.678;23.288;2022-12-10T05:59:28;18.42;;;8.65;;
21091;SDS011;10704;42.678;23.288;2022-12-10T06:01:54;16.48;;;7.78;;
21091;SDS011;10704;42.678;23.288;2022-12-10T06:04:19;16.15;;;8.05;;
21091;SDS011;10704;42.678;23.288;2022-12-10T06:06:45;19.58;;;8.82;;
21091;SDS011;10704;42.678;23.288;2022-12-10T06:09:12;31.30;;;10.38;;
21091;SDS011;10704;42.678;23.288;2022-12-10T06:11:38;19.50;;;8.40;;
21091;SDS011;10704;42.678;23.288;2022-12-10T06:14:05;14.43;;;8.77;;
21091;SDS011;10704;42.678;23.288;2022-12-10T06:16:31;20.05;;;8.55;;
21091;SDS011;10704;42.678;23.288;2022-12-10T06:18:57;18.63;;;9.15;;
21091;SDS011;10704;42.678;23.288;2022-12-10T06:21:23;19.20;;;7.88;;
21091;SDS011;10704;42.678;23.288;2022-12-10T06:23:49;17.65;;;8.10;;
21091;SDS011;10704;42.678;23.288;2022-12-10T06:26:20;15.98;;;8.85;;
21091;SDS011;10704;42.678;23.288;2022-12-10T06:28:50;25.35;;;10.10;;
21091;SDS011;10704;42.678;23.288;2022-12-10T06:31:16;22.67;;;9.75;;
21091;SDS011;10704;42.678;23.288;2022-12-10T06:33:43;19.58;;;9.88;;
21091;SDS011;10704;42.678;23.288;2022-12-10T06:36:10;20.35;;;9.80;;
21091;SDS011;10704;42.678;23.288;2022-12-10T06:38:37;18.88;;;9.52;;
21091;SDS011;10704;42.678;23.288;2022-12-10T06:41:04;20.70;;;9.25;;
21091;SDS011;10704;42.678;23.288;2022-12-10T06:43:31;18.63;;;9.98;;
21091;SDS011;10704;42.678;23.288;2022-12-10T06:45:58;17.55;;;9.25;;
21091;SDS011;10704;42.678;23.288;2022-12-10T06:48:24;19.75;;;9.65;;
21091;SDS011;10704;42.678;23.288;2022-12-10T06:50:50;16.20;;;9.95;;
21091;SDS011;10704;42.678;23.288;2022-12-10T06:53:16;24.90;;;10.02;;
21091;SDS011;10704;42.678;23.288;2022-12-10T06:55:42;20.05;;;11.98;;
21091;SDS011;10704;42.678;23.288;2022-12-10T06:58:08;20.40;;;10.60;;
21091;SDS011;10704;42.678;23.288;2022-12-10T07:00:33;21.92;;;10.60;;
21091;SDS011;10704;42.678;23.288;2022-12-10T07:02:59;22.05;;;10.20;;
21091;SDS011;10704;42.678;23.288;2022-12-10T07:05:25;19.08;;;9.63;;
21091;SDS011;10704;42.678;23.288;2022-12-10T07:07:51;19.35;;;8.90;;
21091;SDS011;10704;42.678;23.288;2022-12-10T07:10:17;18.88;;;10.07;;
21091;SDS011;10704;42.678;23.288;2022-12-10T07:12:43;20.75;;;11.80;;
21091;SDS011;10704;42.678;23.288;2022-12-10T07:15:09;22.52;;;12.43;;
21091;SDS011;10704;42.678;23.288;2022-12-10T07:17:35;28.50;;;12.85;;
21091;SDS011;10704;42.678;23.288;2022-12-10T07:20:01;23.10;;;9.85;;
21091;SDS011;10704;42.678;23.288;2022-12-10T07:22:27;21.40;;;10.40;;
21091;SDS011;10704;42.678;23.288;2022-12-10T07:24:53;21.00;;;9.93;;
21091;SDS011;10704;42.678;23.288;2022-12-10T07:27:19;21.70;;;9.13;;
21091;SDS011;10704;42.678;23.288;2022-12-10T07:29:46;21.40;;;10.95;;
21091;SDS011;10704;42.678;23.288;2022-12-10T07:32:12;21.35;;;10.32;;
21091;SDS011;10704;42.678;23.288;2022-12-10T07:34:39;21.13;;;10.13;;
21091;SDS011;10704;42.678;23.288;2022-12-10T07:37:05;21.67;;;10.35;;
21091;SDS011;10704;42.678;23.288;2022-12-10T07:39:32;23.60;;;11.00;;
21091;SDS011;10704;42.678;23.288;2022-12-10T07:41:57;20.63;;;9.13;;
21091;SDS011;10704;42.678;23.288;2022-12-10T07:44:27;18.20;;;9.70;;
21091;SDS011;10704;42.678;23.288;2022-12-10T07:46:53;17.88;;;9.75;;
21091;SDS011;10704;42.678;23.288;2022-12-10T07:49:20;19.80;;;10.27;;
21091;SDS011;10704;42.678;23.288;2022-12-10T07:51:46;15.68;;;10.10;;
21091;SDS011;10704;42.678;23.288;2022-12-10T07:54:14;19.90;;;10.25;;
21091;SDS011;10704;42.678;23.288;2022-12-10T07:56:41;23.63;;;12.18;;
21091;SDS011;10704;42.678;23.288;2022-12-10T07:59:08;20.75;;;10.93;;
21091;SDS011;10704;42.678;23.288;2022-12-10T08:01:34;16.13;;;9.93;;
21091;SDS011;10704;42.678;23.288;2022-12-10T08:04:01;17.75;;;9.50;;
21091;SDS011;10704;42.678;23.288;2022-12-10T08:06:28;18.40;;;9.27;;
21091;SDS011;10704;42.678;23.288;2022-12-10T08:08:54;22.98;;;10.98;;
21091;SDS011;10704;42.678;23.288;2022-12-10T08:11:21;22.13;;;10.73;;
21091;SDS011;10704;42.678;23.288;2022-12-10T08:13:47;27.48;;;12.13;;
21091;SDS011;10704;42.678;23.288;2022-12-10T08:16:16;22.20;;;10.10;;
21091;SDS011;10704;42.678;23.288;2022-12-10T08:18:45;20.13;;;10.40;;
21091;SDS011;10704;42.678;23.288;2022-12-10T08:21:15;20.35;;;10.73;;
21091;SDS011;10704;42.678;23.288;2022-12-10T08:23:43;22.02;;;10.60;;
21091;SDS011;10704;42.678;23.288;2022-12-10T08:26:13;17.48;;;10.23;;
21091;SDS011;10704;42.678;23.288;2022-12-10T08:28:50;23.67;;;11.57;;
21091;SDS011;10704;42.678;23.288;2022-12-10T08:31:17;22.33;;;11.10;;
21091;SDS011;10704;42.678;23.288;2022-12-10T08:33:45;19.30;;;11.07;;
21091;SDS011;10704;42.678;23.288;2022-12-10T08:36:12;19.75;;;9.82;;
21091;SDS011;10704;42.678;23.288;2022-12-10T08:38:40;19.27;;;10.00;;
21091;SDS011;10704;42.678;23.288;2022-12-10T08:41:07;24.60;;;11.13;;
21091;SDS011;10704;42.678;23.288;2022-12-10T08:43:35;23.48;;;11.07;;
21091;SDS011;10704;42.678;23.288;2022-12-10T08:46:01;18.70;;;10.85;;
21091;SDS011;10704;42.678;23.288;2022-12-10T08:48:28;23.05;;;10.93;;
21091;SDS011;10704;42.678;23.288;2022-12-10T08:50:54;24.10;;;11.20;;
21091;SDS011;10704;42.678;23.288;2022-12-10T08:53:20;19.85;;;9.70;;
21091;SDS011;10704;42.678;23.288;2022-12-10T08:55:49;18.40;;;10.05;;
21091;SDS011;10704;42.678;23.288;2022-12-10T08:58:16;16.67;;;9.57;;
21091;SDS011;10704;42.678;23.288;2022-12-10T09:00:43;20.15;;;10.50;;
21091;SDS011;10704;42.678;23.288;2022-12-10T09:03:09;21.63;;;11.13;;
21091;SDS011;10704;42.678;23.288;2022-12-10T09:05:35;21.08;;;12.10;;
21091;SDS011;10704;42.678;23.288;2022-12-10T09:08:01;20.98;;;11.80;;
21091;SDS011;10704;42.678;23.288;2022-12-10T09:10:27;29.45;;;11.68;;
21091;SDS011;10704;42.678;23.288;2022-12-10T09:12:53;24.15;;;12.02;;
21091;SDS011;10704;42.678;23.288;2022-12-10T09:15:19;21.98;;;12.68;;
21091;SDS011;10704;42.678;23.288;2022-12-10T09:17:45;17.48;;;9.82;;
21091;SDS011;10704;42.678;23.288;2022-12-10T09:20:11;21.42;;;10.90;;
21091;SDS011;10704;42.678;23.288;2022-12-10T09:22:38;18.30;;;11.32;;
21091;SDS011;10704;42.678;23.288;2022-12-10T09:25:04;19.55;;;11.15;;
21091;SDS011;10704;42.678;23.288;2022-12-10T09:27:32;20.20;;;11.25;;
21091;SDS011;10704;42.678;23.288;2022-12-10T09:29:58;18.90;;;9.60;;
21091;SDS011;10704;42.678;23.288;2022-12-10T09:32:24;17.08;;;10.48;;
21091;SDS011;10704;42.678;23.288;2022-12-10T09:34:51;22.10;;;10.38;;
21091;SDS011;10704;42.678;23.288;2022-12-10T09:37:17;19.90;;;9.82;;
21091;SDS011;10704;42.678;23.288;2022-12-10T09:39:43;19.77;;;9.43;;
21091;SDS011;10704;42.678;23.288;2022-12-10T09:45:24;16.15;;;9.63;;
21091;SDS011;10704;42.678;23.288;2022-12-10T09:53:37;20.33;;;11.57;;
21091;SDS011;10704;42.678;23.288;2022-12-10T09:56:05;22.08;;;10.63;;
21091;SDS011;10704;42.678;23.288;2022-12-10T09:58:39;17.95;;;10.57;;
21091;SDS011;10704;42.678;23.288;2022-12-10T10:01:05;20.88;;;10.90;;
21091;SDS011;10704;42.678;23.288;2022-12-10T10:03:37;22.77;;;11.45;;
21091;SDS011;10704;42.678;23.288;2022-12-10T10:06:05;23.23;;;11.05;;
21091;SDS011;10704;42.678;23.288;2022-12-10T10:08:56;21.60;;;11.57;;
21091;SDS011;10704;42.678;23.288;2022-12-10T10:11:24;21.25;;;10.65;;
21091;SDS011;10704;42.678;23.288;2022-12-10T10:13:59;19.17;;;12.13;;
21091;SDS011;10704;42.678;23.288;2022-12-10T10:16:50;23.58;;;10.02;;
21091;SDS011;10704;42.678;23.288;2022-12-10T10:19:29;17.20;;;10.13;;
21091;SDS011;10704;42.678;23.288;2022-12-10T10:21:58;15.60;;;10.38;;
21091;SDS011;10704;42.678;23.288;2022-12-10T10:24:31;14.68;;;10.15;;
21091;SDS011;10704;42.678;23.288;2022-12-10T10:27:20;30.38;;;13.90;;
21091;SDS011;10704;42.678;23.288;2022-12-10T10:29:54;23.20;;;11.88;;
21091;SDS011;10704;42.678;23.288;2022-12-10T10:32:27;16.27;;;8.15;;
21091;SDS011;10704;42.678;23.288;2022-12-10T10:35:00;15.70;;;9.23;;
21091;SDS011;10704;42.678;23.288;2022-12-10T10:37:45;14.55;;;8.07;;
21091;SDS011;10704;42.678;23.288;2022-12-10T10:40:21;13.95;;;8.80;;
21091;SDS011;10704;42.678;23.288;2022-12-10T10:42:48;16.02;;;7.80;;
21091;SDS011;10704;42.678;23.288;2022-12-10T10:45:32;16.95;;;7.88;;
21091;SDS011;10704;42.678;23.288;2022-12-10T10:50:46;16.13;;;9.35;;
21091;SDS011;10704;42.678;23.288;2022-12-10T10:53:40;13.95;;;8.80;;
21091;SDS011;10704;42.678;23.288;2022-12-10T10:58:46;20.50;;;11.10;;
21091;SDS011;10704;42.678;23.288;2022-12-10T11:04:13;22.63;;;7.80;;
21091;SDS011;10704;42.678;23.288;2022-12-10T11:06:41;18.70;;;8.82;;
21091;SDS011;10704;42.678;23.288;2022-12-10T11:09:13;15.30;;;8.20;;
21091;SDS011;10704;42.678;23.288;2022-12-10T11:11:49;14.40;;;8.55;;
21091;SDS011;10704;42.678;23.288;2022-12-10T11:14:28;14.02;;;8.07;;
21091;SDS011;10704;42.678;23.288;2022-12-10T11:17:03;15.88;;;8.88;;
21091;SDS011;10704;42.678;23.288;2022-12-10T11:19:35;18.73;;;9.00;;
21091;SDS011;10704;42.678;23.288;2022-12-10T11:22:32;13.85;;;7.57;;
21091;SDS011;10704;42.678;23.288;2022-12-10T11:24:59;16.08;;;8.23;;
21091;SDS011;10704;42.678;23.288;2022-12-10T11:32:38;13.98;;;6.22;;
21091;SDS011;10704;42.678;23.288;2022-12-10T11:35:19;11.23;;;6.18;;
21091;SDS011;10704;42.678;23.288;2022-12-10T11:40:49;15.65;;;7.20;;
21091;SDS011;10704;42.678;23.288;2022-12-10T11:52:34;18.95;;;7.10;;
21091;SDS011;10704;42.678;23.288;2022-12-10T11:57:43;13.13;;;6.25;;
21091;SDS011;10704;42.678;23.288;2022-12-10T12:00:17;13.52;;;7.07;;
21091;SDS011;10704;42.678;23.288;2022-12-10T12:05:19;11.60;;;6.53;;
21091;SDS011;10704;42.678;23.288;2022-12-10T12:08:15;12.15;;;6.95;;
21091;SDS011;10704;42.678;23.288;2022-12-10T12:16:42;22.60;;;7.85;;
21091;SDS011;10704;42.678;23.288;2022-12-10T12:22:06;23.15;;;9.38;;
21091;SDS011;10704;42.678;23.288;2022-12-10T12:24:40;12.20;;;7.18;;
21091;SDS011;10704;42.678;23.288;2022-12-10T12:27:17;17.35;;;8.45;;
21091;SDS011;10704;42.678;23.288;2022-12-10T12:29:53;16.27;;;8.70;;
21091;SDS011;10704;42.678;23.288;2022-12-10T12:43:28;15.85;;;7.97;;
21091;SDS011;10704;42.678;23.288;2022-12-10T12:46:00;14.38;;;8.48;;
21091;SDS011;10704;42.678;23.288;2022-12-10T12:48:41;17.52;;;8.73;;
21091;SDS011;10704;42.678;23.288;2022-12-10T12:51:42;19.83;;;8.98;;
21091;SDS011;10704;42.678;23.288;2022-12-10T12:54:10;15.93;;;8.77;;
21091;SDS011;10704;42.678;23.288;2022-12-10T13:02:17;23.92;;;9.57;;
21091;SDS011;10704;42.678;23.288;2022-12-10T13:05:13;16.10;;;8.38;;
21091;SDS011;10704;42.678;23.288;2022-12-10T13:07:41;19.33;;;9.23;;
21091;SDS011;10704;42.678;23.288;2022-12-10T13:13:06;18.35;;;9.13;;
21091;SDS011;10704;42.678;23.288;2022-12-10T13:15:42;18.77;;;8.95;;
21091;SDS011;10704;42.678;23.288;2022-12-10T13:20:48;18.88;;;9.57;;
21091;SDS011;10704;42.678;23.288;2022-12-10T13:23:34;20.60;;;10.15;;
21091;SDS011;10704;42.678;23.288;2022-12-10T13:26:29;19.25;;;9.70;;
21091;SDS011;10704;42.678;23.288;2022-12-10T13:29:10;22.55;;;10.57;;
21091;SDS011;10704;42.678;23.288;2022-12-10T13:32:02;25.13;;;10.50;;
21091;SDS011;10704;42.678;23.288;2022-12-10T13:34:33;21.90;;;12.55;;
21091;SDS011;10704;42.678;23.288;2022-12-10T13:37:03;21.83;;;15.93;;
21091;SDS011;10704;42.678;23.288;2022-12-10T13:42:22;22.42;;;11.35;;
21091;SDS011;10704;42.678;23.288;2022-12-10T13:47:48;19.23;;;10.65;;
21091;SDS011;10704;42.678;23.288;2022-12-10T13:50:18;21.92;;;11.98;;
21091;SDS011;10704;42.678;23.288;2022-12-10T13:55:46;26.60;;;14.18;;
21091;SDS011;10704;42.678;23.288;2022-12-10T14:01:13;25.27;;;13.30;;
21091;SDS011;10704;42.678;23.288;2022-12-10T14:04:01;20.70;;;11.20;;
21091;SDS011;10704;42.678;23.288;2022-12-10T14:06:55;27.58;;;12.07;;
21091;SDS011;10704;42.678;23.288;2022-12-10T14:09:23;27.20;;;9.82;;
21091;SDS011;10704;42.678;23.288;2022-12-10T14:12:02;24.40;;;13.20;;
21091;SDS011;10704;42.678;23.288;2022-12-10T14:14:39;24.83;;;12.13;;
21091;SDS011;10704;42.678;23.288;2022-12-10T14:17:11;23.30;;;10.25;;
21091;SDS011;10704;42.678;23.288;2022-12-10T14:19:43;18.08;;;9.27;;
21091;SDS011;10704;42.678;23.288;2022-12-10T14:22:19;21.92;;;10.00;;
21091;SDS011;10704;42.678;23.288;2022-12-10T14:25:02;19.60;;;10.13;;
21091;SDS011;10704;42.678;23.288;2022-12-10T14:27:32;19.35;;;9.00;;
21091;SDS011;10704;42.678;23.288;2022-12-10T14:30:03;19.25;;;9.57;;
21091;SDS011;10704;42.678;23.288;2022-12-10T14:32:43;18.55;;;9.98;;
21091;SDS011;10704;42.678;23.288;2022-12-10T14:35:28;23.13;;;13.60;;
21091;SDS011;10704;42.678;23.288;2022-12-10T14:37:55;29.70;;;16.42;;
21091;SDS011;10704;42.678;23.288;2022-12-10T14:40:31;25.92;;;12.07;;
21091;SDS011;10704;42.678;23.288;2022-12-10T14:43:07;24.05;;;10.95;;
21091;SDS011;10704;42.678;23.288;2022-12-10T14:45:42;22.98;;;10.18;;
21091;SDS011;10704;42.678;23.288;2022-12-10T14:48:12;22.27;;;10.70;;
21091;SDS011;10704;42.678;23.288;2022-12-10T14:50:41;27.20;;;11.95;;
21091;SDS011;10704;42.678;23.288;2022-12-10T14:53:11;26.58;;;12.90;;
21091;SDS011;10704;42.678;23.288;2022-12-10T14:55:49;26.65;;;12.88;;
21091;SDS011;10704;42.678;23.288;2022-12-10T14:58:27;32.75;;;18.15;;
21091;SDS011;10704;42.678;23.288;2022-12-10T15:01:00;41.85;;;25.73;;
21091;SDS011;10704;42.678;23.288;2022-12-10T15:03:27;46.97;;;27.65;;
21091;SDS011;10704;42.678;23.288;2022-12-10T15:05:57;41.55;;;21.77;;
21091;SDS011;10704;42.678;23.288;2022-12-10T15:08:26;30.13;;;18.20;;
21091;SDS011;10704;42.678;23.288;2022-12-10T15:10:57;33.30;;;19.52;;
21091;SDS011;10704;42.678;23.288;2022-12-10T15:15:54;26.33;;;14.80;;
21091;SDS011;10704;42.678;23.288;2022-12-10T15:18:28;28.73;;;15.70;;
21091;SDS011;10704;42.678;23.288;2022-12-10T15:21:11;39.10;;;23.60;;
21091;SDS011;10704;42.678;23.288;2022-12-10T15:23:43;44.33;;;23.98;;
21091;SDS011;10704;42.678;23.288;2022-12-10T15:26:14;49.25;;;25.38;;
21091;SDS011;10704;42.678;23.288;2022-12-10T15:28:44;43.30;;;26.33;;
21091;SDS011;10704;42.678;23.288;2022-12-10T15:33:53;46.97;;;27.45;;
21091;SDS011;10704;42.678;23.288;2022-12-10T15:36:40;48.88;;;27.13;;
21091;SDS011;10704;42.678;23.288;2022-12-10T15:41:46;37.75;;;22.40;;
21091;SDS011;10704;42.678;23.288;2022-12-10T15:46:56;37.45;;;22.52;;
21091;SDS011;10704;42.678;23.288;2022-12-10T15:49:22;39.03;;;22.52;;
21091;SDS011;10704;42.678;23.288;2022-12-10T15:51:48;41.80;;;23.52;;
21091;SDS011;10704;42.678;23.288;2022-12-10T15:56:52;30.88;;;19.52;;
21091;SDS011;10704;42.678;23.288;2022-12-10T15:59:18;29.55;;;17.33;;
21091;SDS011;10704;42.678;23.288;2022-12-10T16:01:44;34.58;;;19.95;;
21091;SDS011;10704;42.678;23.288;2022-12-10T16:04:10;35.22;;;20.85;;
21091;SDS011;10704;42.678;23.288;2022-12-10T16:06:37;41.03;;;23.73;;
21091;SDS011;10704;42.678;23.288;2022-12-10T16:09:03;48.75;;;28.45;;
21091;SDS011;10704;42.678;23.288;2022-12-10T16:11:29;45.15;;;27.60;;
21091;SDS011;10704;42.678;23.288;2022-12-10T16:13:56;46.33;;;28.98;;
21091;SDS011;10704;42.678;23.288;2022-12-10T16:16:22;51.70;;;32.75;;
21091;SDS011;10704;42.678;23.288;2022-12-10T16:18:49;46.25;;;28.83;;
21091;SDS011;10704;42.678;23.288;2022-12-10T16:21:15;43.95;;;27.27;;
21091;SDS011;10704;42.678;23.288;2022-12-10T16:23:42;50.22;;;27.50;;
21091;SDS011;10704;42.678;23.288;2022-12-10T16:26:11;48.92;;;32.20;;
21091;SDS011;10704;42.678;23.288;2022-12-10T16:28:46;59.35;;;32.97;;
21091;SDS011;10704;42.678;23.288;2022-12-10T16:31:14;59.28;;;34.00;;
21091;SDS011;10704;42.678;23.288;2022-12-10T16:33:42;56.38;;;35.08;;
21091;SDS011;10704;42.678;23.288;2022-12-10T16:36:09;71.28;;;44.90;;
21091;SDS011;10704;42.678;23.288;2022-12-10T16:38:37;68.78;;;42.35;;
21091;SDS011;10704;42.678;23.288;2022-12-10T16:41:06;69.82;;;46.75;;
21091;SDS011;10704;42.678;23.288;2022-12-10T16:43:43;73.75;;;46.63;;
21091;SDS011;10704;42.678;23.288;2022-12-10T16:46:10;72.13;;;45.03;;
21091;SDS011;10704;42.678;23.288;2022-12-10T16:48:36;74.43;;;46.33;;
21091;SDS011;10704;42.678;23.288;2022-12-10T16:51:02;68.03;;;41.35;;
21091;SDS011;10704;42.678;23.288;2022-12-10T16:53:31;51.38;;;30.50;;
21091;SDS011;10704;42.678;23.288;2022-12-10T16:56:00;46.95;;;28.35;;